sensor_id;sensor_type;location;lat;lon;timestamp;P1;durP1;ratioP1;P2;durP2;ratioP2
23561;SDS011;11959;49.418;8.728;2024-01-07T00:00:21;18.67;;;10.65;;
23561;SDS011;11959;49.418;8.728;2024-01-07T00:02:47;18.77;;;11.38;;
23561;SDS011;11959;49.418;8.728;2024-01-07T00:05:12;18.98;;;10.80;;
23561;SDS011;11959;49.418;8.728;2024-01-07T00:07:38;22.52;;;12.05;;
23561;SDS011;11959;49.418;8.728;2024-01-07T00:10:04;21.75;;;12.15;;
23561;SDS011;11959;49.418;8.728;2024-01-07T00:12:30;20.27;;;11.77;;
23561;SDS011;11959;49.418;8.728;2024-01-07T00:14:56;19.10;;;11.25;;
23561;SDS011;11959;49.418;8.728;2024-01-07T00:17:21;18.00;;;10.75;;
23561;SDS011;11959;49.418;8.728;2024-01-07T00:19:48;19.55;;;11.60;;
23561;SDS011;11959;49.418;8.728;2024-01-07T00:22:13;23.08;;;13.75;;
23561;SDS011;11959;49.418;8.728;2024-01-07T00:24:39;25.75;;;14.85;;
23561;SDS011;11959;49.418;8.728;2024-01-07T00:27:05;30.80;;;17.50;;
23561;SDS011;11959;49.418;8.728;2024-01-07T00:29:30;30.25;;;17.10;;
23561;SDS011;11959;49.418;8.728;2024-01-07T00:31:56;20.98;;;13.13;;
23561;SDS011;11959;49.418;8.728;2024-01-07T00:34:22;20.58;;;12.48;;
23561;SDS011;11959;49.418;8.728;2024-01-07T00:36:47;19.00;;;11.23;;
23561;SDS011;11959;49.418;8.728;2024-01-07T00:39:13;20.80;;;12.15;;
23561;SDS011;11959;49.418;8.728;2024-01-07T00:41:38;24.60;;;13.43;;
23561;SDS011;11959;49.418;8.728;2024-01-07T00:44:04;22.10;;;13.13;;
23561;SDS011;11959;49.418;8.728;2024-01-07T00:46:30;22.85;;;12.45;;
23561;SDS011;11959;49.418;8.728;2024-01-07T00:48:55;22.70;;;12.35;;
23561;SDS011;11959;49.418;8.728;2024-01-07T00:51:21;21.55;;;12.25;;
23561;SDS011;11959;49.418;8.728;2024-01-07T00:53:46;22.23;;;12.80;;
23561;SDS011;11959;49.418;8.728;2024-01-07T00:56:12;25.40;;;13.57;;
23561;SDS011;11959;49.418;8.728;2024-01-07T00:58:38;22.90;;;12.60;;
23561;SDS011;11959;49.418;8.728;2024-01-07T01:01:03;22.38;;;12.18;;
23561;SDS011;11959;49.418;8.728;2024-01-07T01:03:30;24.90;;;13.85;;
23561;SDS011;11959;49.418;8.728;2024-01-07T01:05:56;27.15;;;14.00;;
23561;SDS011;11959;49.418;8.728;2024-01-07T01:08:22;24.30;;;13.00;;
23561;SDS011;11959;49.418;8.728;2024-01-07T01:10:48;23.92;;;13.30;;
23561;SDS011;11959;49.418;8.728;2024-01-07T01:13:13;21.05;;;12.00;;
23561;SDS011;11959;49.418;8.728;2024-01-07T01:15:39;21.15;;;13.07;;
23561;SDS011;11959;49.418;8.728;2024-01-07T01:18:05;21.70;;;12.68;;
23561;SDS011;11959;49.418;8.728;2024-01-07T01:20:30;21.85;;;13.35;;
23561;SDS011;11959;49.418;8.728;2024-01-07T01:22:56;23.33;;;13.57;;
23561;SDS011;11959;49.418;8.728;2024-01-07T01:25:22;26.60;;;14.60;;
23561;SDS011;11959;49.418;8.728;2024-01-07T01:27:47;27.10;;;15.52;;
23561;SDS011;11959;49.418;8.728;2024-01-07T01:30:13;24.50;;;14.07;;
23561;SDS011;11959;49.418;8.728;2024-01-07T01:32:39;23.60;;;13.60;;
23561;SDS011;11959;49.418;8.728;2024-01-07T01:35:05;22.17;;;12.73;;
23561;SDS011;11959;49.418;8.728;2024-01-07T01:37:31;21.30;;;13.07;;
23561;SDS011;11959;49.418;8.728;2024-01-07T01:40:00;19.67;;;11.85;;
23561;SDS011;11959;49.418;8.728;2024-01-07T01:42:25;25.92;;;13.88;;
23561;SDS011;11959;49.418;8.728;2024-01-07T01:44:51;23.95;;;13.18;;
23561;SDS011;11959;49.418;8.728;2024-01-07T01:47:18;22.50;;;12.45;;
23561;SDS011;11959;49.418;8.728;2024-01-07T01:49:45;21.95;;;12.10;;
23561;SDS011;11959;49.418;8.728;2024-01-07T01:52:11;22.85;;;12.80;;
23561;SDS011;11959;49.418;8.728;2024-01-07T01:54:38;23.10;;;12.75;;
23561;SDS011;11959;49.418;8.728;2024-01-07T01:57:04;21.98;;;12.60;;
23561;SDS011;11959;49.418;8.728;2024-01-07T01:59:30;23.13;;;12.68;;
23561;SDS011;11959;49.418;8.728;2024-01-07T02:01:58;21.25;;;12.48;;
23561;SDS011;11959;49.418;8.728;2024-01-07T02:04:24;21.67;;;11.93;;
23561;SDS011;11959;49.418;8.728;2024-01-07T02:06:50;20.52;;;11.57;;
23561;SDS011;11959;49.418;8.728;2024-01-07T02:09:16;22.33;;;12.10;;
23561;SDS011;11959;49.418;8.728;2024-01-07T02:11:42;21.02;;;12.60;;
23561;SDS011;11959;49.418;8.728;2024-01-07T02:14:07;21.42;;;12.70;;
23561;SDS011;11959;49.418;8.728;2024-01-07T02:16:33;21.20;;;11.82;;
23561;SDS011;11959;49.418;8.728;2024-01-07T02:18:58;18.73;;;10.23;;
23561;SDS011;11959;49.418;8.728;2024-01-07T02:21:24;19.13;;;10.65;;
23561;SDS011;11959;49.418;8.728;2024-01-07T02:23:50;19.92;;;11.57;;
23561;SDS011;11959;49.418;8.728;2024-01-07T02:26:15;17.45;;;10.27;;
23561;SDS011;11959;49.418;8.728;2024-01-07T02:28:41;16.63;;;10.57;;
23561;SDS011;11959;49.418;8.728;2024-01-07T02:31:06;18.80;;;10.45;;
23561;SDS011;11959;49.418;8.728;2024-01-07T02:33:32;17.73;;;9.88;;
23561;SDS011;11959;49.418;8.728;2024-01-07T02:35:58;14.82;;;8.98;;
23561;SDS011;11959;49.418;8.728;2024-01-07T02:38:23;13.73;;;8.15;;
23561;SDS011;11959;49.418;8.728;2024-01-07T02:40:49;11.50;;;6.80;;
23561;SDS011;11959;49.418;8.728;2024-01-07T02:43:14;12.02;;;6.78;;
23561;SDS011;11959;49.418;8.728;2024-01-07T02:45:40;9.73;;;6.43;;
23561;SDS011;11959;49.418;8.728;2024-01-07T02:48:06;11.27;;;6.38;;
23561;SDS011;11959;49.418;8.728;2024-01-07T02:50:32;11.25;;;6.28;;
23561;SDS011;11959;49.418;8.728;2024-01-07T02:52:58;11.00;;;6.35;;
23561;SDS011;11959;49.418;8.728;2024-01-07T02:55:23;11.23;;;6.05;;
23561;SDS011;11959;49.418;8.728;2024-01-07T02:57:49;10.65;;;6.00;;
23561;SDS011;11959;49.418;8.728;2024-01-07T03:00:14;9.60;;;5.80;;
23561;SDS011;11959;49.418;8.728;2024-01-07T03:02:42;10.70;;;6.47;;
23561;SDS011;11959;49.418;8.728;2024-01-07T03:05:08;10.18;;;6.28;;
23561;SDS011;11959;49.418;8.728;2024-01-07T03:07:33;10.80;;;6.30;;
23561;SDS011;11959;49.418;8.728;2024-01-07T03:09:59;9.57;;;5.55;;
23561;SDS011;11959;49.418;8.728;2024-01-07T03:12:25;9.35;;;5.70;;
23561;SDS011;11959;49.418;8.728;2024-01-07T03:14:50;8.95;;;5.68;;
23561;SDS011;11959;49.418;8.728;2024-01-07T03:17:16;9.85;;;6.13;;
23561;SDS011;11959;49.418;8.728;2024-01-07T03:19:42;10.55;;;5.85;;
23561;SDS011;11959;49.418;8.728;2024-01-07T03:22:08;10.57;;;6.13;;
23561;SDS011;11959;49.418;8.728;2024-01-07T03:24:33;8.95;;;5.68;;
23561;SDS011;11959;49.418;8.728;2024-01-07T03:26:59;11.18;;;6.65;;
23561;SDS011;11959;49.418;8.728;2024-01-07T03:29:25;7.90;;;4.93;;
23561;SDS011;11959;49.418;8.728;2024-01-07T03:31:50;9.07;;;5.68;;
23561;SDS011;11959;49.418;8.728;2024-01-07T03:34:17;10.40;;;6.03;;
23561;SDS011;11959;49.418;8.728;2024-01-07T03:36:44;10.40;;;5.18;;
23561;SDS011;11959;49.418;8.728;2024-01-07T03:39:09;9.43;;;5.93;;
23561;SDS011;11959;49.418;8.728;2024-01-07T03:41:35;9.02;;;5.97;;
23561;SDS011;11959;49.418;8.728;2024-01-07T03:44:00;11.27;;;6.55;;
23561;SDS011;11959;49.418;8.728;2024-01-07T03:46:27;11.13;;;6.28;;
23561;SDS011;11959;49.418;8.728;2024-01-07T03:48:52;10.43;;;5.80;;
23561;SDS011;11959;49.418;8.728;2024-01-07T03:51:18;10.40;;;6.72;;
23561;SDS011;11959;49.418;8.728;2024-01-07T03:53:44;13.02;;;7.15;;
23561;SDS011;11959;49.418;8.728;2024-01-07T03:56:09;10.35;;;6.78;;
23561;SDS011;11959;49.418;8.728;2024-01-07T03:58:35;10.07;;;6.50;;
23561;SDS011;11959;49.418;8.728;2024-01-07T04:01:01;9.73;;;6.18;;
23561;SDS011;11959;49.418;8.728;2024-01-07T04:03:26;11.18;;;6.93;;
23561;SDS011;11959;49.418;8.728;2024-01-07T04:05:52;9.30;;;5.90;;
23561;SDS011;11959;49.418;8.728;2024-01-07T04:08:18;11.88;;;6.78;;
23561;SDS011;11959;49.418;8.728;2024-01-07T04:10:43;11.55;;;6.75;;
23561;SDS011;11959;49.418;8.728;2024-01-07T04:13:09;11.50;;;6.65;;
23561;SDS011;11959;49.418;8.728;2024-01-07T04:15:35;8.48;;;5.75;;
23561;SDS011;11959;49.418;8.728;2024-01-07T04:18:01;8.88;;;6.20;;
23561;SDS011;11959;49.418;8.728;2024-01-07T04:20:28;9.95;;;5.95;;
23561;SDS011;11959;49.418;8.728;2024-01-07T04:22:54;12.48;;;6.95;;
23561;SDS011;11959;49.418;8.728;2024-01-07T04:25:20;10.55;;;6.57;;
23561;SDS011;11959;49.418;8.728;2024-01-07T04:27:46;12.52;;;7.35;;
23561;SDS011;11959;49.418;8.728;2024-01-07T04:30:11;13.02;;;7.22;;
23561;SDS011;11959;49.418;8.728;2024-01-07T04:32:37;10.77;;;7.10;;
23561;SDS011;11959;49.418;8.728;2024-01-07T04:35:03;9.82;;;6.00;;
23561;SDS011;11959;49.418;8.728;2024-01-07T04:37:29;11.90;;;8.18;;
23561;SDS011;11959;49.418;8.728;2024-01-07T04:39:54;16.55;;;9.65;;
23561;SDS011;11959;49.418;8.728;2024-01-07T04:42:20;14.15;;;7.80;;
23561;SDS011;11959;49.418;8.728;2024-01-07T04:44:45;12.30;;;7.35;;
23561;SDS011;11959;49.418;8.728;2024-01-07T04:47:27;14.93;;;8.48;;
23561;SDS011;11959;49.418;8.728;2024-01-07T04:49:57;14.55;;;8.75;;
23561;SDS011;11959;49.418;8.728;2024-01-07T04:52:23;17.58;;;10.25;;
23561;SDS011;11959;49.418;8.728;2024-01-07T04:54:55;14.45;;;9.02;;
23561;SDS011;11959;49.418;8.728;2024-01-07T04:57:21;13.07;;;8.57;;
23561;SDS011;11959;49.418;8.728;2024-01-07T04:59:48;13.65;;;8.32;;
23561;SDS011;11959;49.418;8.728;2024-01-07T05:02:14;14.00;;;8.43;;
23561;SDS011;11959;49.418;8.728;2024-01-07T05:04:40;14.50;;;7.78;;
23561;SDS011;11959;49.418;8.728;2024-01-07T05:07:06;11.93;;;7.88;;
23561;SDS011;11959;49.418;8.728;2024-01-07T05:09:32;14.02;;;8.90;;
23561;SDS011;11959;49.418;8.728;2024-01-07T05:11:58;15.65;;;9.32;;
23561;SDS011;11959;49.418;8.728;2024-01-07T05:14:24;15.38;;;8.93;;
23561;SDS011;11959;49.418;8.728;2024-01-07T05:16:50;13.88;;;7.80;;
23561;SDS011;11959;49.418;8.728;2024-01-07T05:19:15;14.48;;;8.70;;
23561;SDS011;11959;49.418;8.728;2024-01-07T05:21:41;14.77;;;8.30;;
23561;SDS011;11959;49.418;8.728;2024-01-07T05:24:07;15.25;;;8.88;;
23561;SDS011;11959;49.418;8.728;2024-01-07T05:26:39;13.73;;;8.40;;
23561;SDS011;11959;49.418;8.728;2024-01-07T05:29:05;12.38;;;8.02;;
23561;SDS011;11959;49.418;8.728;2024-01-07T05:31:31;13.02;;;8.27;;
23561;SDS011;11959;49.418;8.728;2024-01-07T05:33:57;11.88;;;7.70;;
23561;SDS011;11959;49.418;8.728;2024-01-07T05:36:22;15.25;;;8.50;;
23561;SDS011;11959;49.418;8.728;2024-01-07T05:38:48;12.68;;;7.80;;
23561;SDS011;11959;49.418;8.728;2024-01-07T05:41:14;11.50;;;7.50;;
23561;SDS011;11959;49.418;8.728;2024-01-07T05:43:39;12.82;;;7.55;;
23561;SDS011;11959;49.418;8.728;2024-01-07T05:46:05;12.48;;;8.27;;
23561;SDS011;11959;49.418;8.728;2024-01-07T05:48:40;13.77;;;8.30;;
23561;SDS011;11959;49.418;8.728;2024-01-07T05:51:09;14.90;;;8.40;;
23561;SDS011;11959;49.418;8.728;2024-01-07T05:53:35;16.35;;;9.18;;
23561;SDS011;11959;49.418;8.728;2024-01-07T05:56:00;12.57;;;8.10;;
23561;SDS011;11959;49.418;8.728;2024-01-07T05:58:27;12.68;;;8.05;;
23561;SDS011;11959;49.418;8.728;2024-01-07T06:00:52;12.60;;;7.97;;
23561;SDS011;11959;49.418;8.728;2024-01-07T06:03:18;11.68;;;7.00;;
23561;SDS011;11959;49.418;8.728;2024-01-07T06:05:44;12.23;;;7.57;;
23561;SDS011;11959;49.418;8.728;2024-01-07T06:08:09;13.00;;;8.02;;
23561;SDS011;11959;49.418;8.728;2024-01-07T06:10:35;13.30;;;8.05;;
23561;SDS011;11959;49.418;8.728;2024-01-07T06:13:01;17.35;;;9.35;;
23561;SDS011;11959;49.418;8.728;2024-01-07T06:15:28;12.60;;;7.47;;
23561;SDS011;11959;49.418;8.728;2024-01-07T06:17:54;14.57;;;8.55;;
23561;SDS011;11959;49.418;8.728;2024-01-07T06:20:20;12.93;;;8.15;;
23561;SDS011;11959;49.418;8.728;2024-01-07T06:22:46;12.25;;;8.00;;
23561;SDS011;11959;49.418;8.728;2024-01-07T06:25:11;13.57;;;8.55;;
23561;SDS011;11959;49.418;8.728;2024-01-07T06:27:40;10.60;;;7.50;;
23561;SDS011;11959;49.418;8.728;2024-01-07T06:30:06;12.15;;;7.63;;
23561;SDS011;11959;49.418;8.728;2024-01-07T06:32:33;13.18;;;8.20;;
23561;SDS011;11959;49.418;8.728;2024-01-07T06:34:59;11.95;;;7.15;;
23561;SDS011;11959;49.418;8.728;2024-01-07T06:37:24;11.43;;;7.60;;
23561;SDS011;11959;49.418;8.728;2024-01-07T06:39:50;11.52;;;7.75;;
23561;SDS011;11959;49.418;8.728;2024-01-07T06:42:16;12.70;;;8.15;;
23561;SDS011;11959;49.418;8.728;2024-01-07T06:44:42;13.18;;;8.25;;
23561;SDS011;11959;49.418;8.728;2024-01-07T06:47:08;11.57;;;7.70;;
23561;SDS011;11959;49.418;8.728;2024-01-07T06:49:33;14.48;;;8.73;;
23561;SDS011;11959;49.418;8.728;2024-01-07T06:51:59;13.52;;;7.55;;
23561;SDS011;11959;49.418;8.728;2024-01-07T06:54:25;12.13;;;7.50;;
23561;SDS011;11959;49.418;8.728;2024-01-07T06:56:50;12.18;;;7.38;;
23561;SDS011;11959;49.418;8.728;2024-01-07T06:59:16;11.38;;;7.28;;
23561;SDS011;11959;49.418;8.728;2024-01-07T07:01:43;13.80;;;8.02;;
23561;SDS011;11959;49.418;8.728;2024-01-07T07:04:09;12.77;;;7.72;;
23561;SDS011;11959;49.418;8.728;2024-01-07T07:06:34;12.90;;;7.10;;
23561;SDS011;11959;49.418;8.728;2024-01-07T07:09:00;11.85;;;6.55;;
23561;SDS011;11959;49.418;8.728;2024-01-07T07:11:26;11.93;;;6.65;;
23561;SDS011;11959;49.418;8.728;2024-01-07T07:13:52;12.57;;;7.07;;
23561;SDS011;11959;49.418;8.728;2024-01-07T07:16:17;10.00;;;6.25;;
23561;SDS011;11959;49.418;8.728;2024-01-07T07:18:43;10.48;;;6.72;;
23561;SDS011;11959;49.418;8.728;2024-01-07T07:21:08;11.27;;;6.70;;
23561;SDS011;11959;49.418;8.728;2024-01-07T07:23:34;9.18;;;5.93;;
23561;SDS011;11959;49.418;8.728;2024-01-07T07:26:00;10.57;;;6.38;;
23561;SDS011;11959;49.418;8.728;2024-01-07T07:28:25;12.27;;;6.90;;
23561;SDS011;11959;49.418;8.728;2024-01-07T07:30:52;11.88;;;7.32;;
23561;SDS011;11959;49.418;8.728;2024-01-07T07:33:18;10.85;;;5.97;;
23561;SDS011;11959;49.418;8.728;2024-01-07T07:35:43;10.30;;;6.28;;
23561;SDS011;11959;49.418;8.728;2024-01-07T07:38:09;9.40;;;6.28;;
23561;SDS011;11959;49.418;8.728;2024-01-07T07:40:35;9.93;;;6.75;;
23561;SDS011;11959;49.418;8.728;2024-01-07T07:43:00;11.45;;;6.68;;
23561;SDS011;11959;49.418;8.728;2024-01-07T07:45:26;9.13;;;6.18;;
23561;SDS011;11959;49.418;8.728;2024-01-07T07:47:51;10.02;;;6.60;;
23561;SDS011;11959;49.418;8.728;2024-01-07T07:50:17;10.63;;;6.78;;
23561;SDS011;11959;49.418;8.728;2024-01-07T07:52:43;11.65;;;6.93;;
23561;SDS011;11959;49.418;8.728;2024-01-07T07:55:09;9.50;;;6.55;;
23561;SDS011;11959;49.418;8.728;2024-01-07T07:57:35;10.38;;;6.10;;
23561;SDS011;11959;49.418;8.728;2024-01-07T08:00:03;10.40;;;6.78;;
23561;SDS011;11959;49.418;8.728;2024-01-07T08:02:30;9.55;;;6.18;;
23561;SDS011;11959;49.418;8.728;2024-01-07T08:04:55;9.20;;;5.97;;
23561;SDS011;11959;49.418;8.728;2024-01-07T08:07:21;9.25;;;5.97;;
23561;SDS011;11959;49.418;8.728;2024-01-07T08:09:47;10.05;;;6.55;;
23561;SDS011;11959;49.418;8.728;2024-01-07T08:12:12;9.57;;;6.15;;
23561;SDS011;11959;49.418;8.728;2024-01-07T08:14:38;10.55;;;6.88;;
23561;SDS011;11959;49.418;8.728;2024-01-07T08:17:07;9.93;;;6.18;;
23561;SDS011;11959;49.418;8.728;2024-01-07T08:19:33;9.63;;;6.15;;
23561;SDS011;11959;49.418;8.728;2024-01-07T08:21:58;7.43;;;5.40;;
23561;SDS011;11959;49.418;8.728;2024-01-07T08:24:24;8.88;;;5.28;;
23561;SDS011;11959;49.418;8.728;2024-01-07T08:26:50;8.45;;;5.82;;
23561;SDS011;11959;49.418;8.728;2024-01-07T08:29:16;8.80;;;5.72;;
23561;SDS011;11959;49.418;8.728;2024-01-07T08:31:42;8.98;;;5.90;;
23561;SDS011;11959;49.418;8.728;2024-01-07T08:34:08;9.02;;;5.50;;
23561;SDS011;11959;49.418;8.728;2024-01-07T08:36:34;6.95;;;5.03;;
23561;SDS011;11959;49.418;8.728;2024-01-07T08:38:59;7.30;;;4.80;;
23561;SDS011;11959;49.418;8.728;2024-01-07T08:41:25;7.32;;;4.80;;
23561;SDS011;11959;49.418;8.728;2024-01-07T08:43:51;6.30;;;4.57;;
23561;SDS011;11959;49.418;8.728;2024-01-07T08:46:17;6.90;;;4.90;;
23561;SDS011;11959;49.418;8.728;2024-01-07T08:48:45;6.40;;;4.68;;
23561;SDS011;11959;49.418;8.728;2024-01-07T08:51:12;7.25;;;4.28;;
23561;SDS011;11959;49.418;8.728;2024-01-07T08:53:38;6.78;;;4.78;;
23561;SDS011;11959;49.418;8.728;2024-01-07T08:56:04;7.15;;;4.60;;
23561;SDS011;11959;49.418;8.728;2024-01-07T08:58:31;7.78;;;4.85;;
23561;SDS011;11959;49.418;8.728;2024-01-07T09:00:57;8.02;;;5.05;;
23561;SDS011;11959;49.418;8.728;2024-01-07T09:03:23;5.95;;;4.45;;
23561;SDS011;11959;49.418;8.728;2024-01-07T09:05:48;8.18;;;4.80;;
23561;SDS011;11959;49.418;8.728;2024-01-07T09:08:14;6.10;;;4.40;;
23561;SDS011;11959;49.418;8.728;2024-01-07T09:10:40;7.55;;;4.22;;
23561;SDS011;11959;49.418;8.728;2024-01-07T09:13:06;5.93;;;4.18;;
23561;SDS011;11959;49.418;8.728;2024-01-07T09:15:31;6.03;;;3.83;;
23561;SDS011;11959;49.418;8.728;2024-01-07T09:17:57;5.60;;;4.13;;
23561;SDS011;11959;49.418;8.728;2024-01-07T09:20:23;5.93;;;4.22;;
23561;SDS011;11959;49.418;8.728;2024-01-07T09:22:49;5.20;;;3.60;;
23561;SDS011;11959;49.418;8.728;2024-01-07T09:25:14;6.88;;;3.85;;
23561;SDS011;11959;49.418;8.728;2024-01-07T09:27:41;6.20;;;3.95;;
23561;SDS011;11959;49.418;8.728;2024-01-07T09:30:10;4.60;;;3.50;;
23561;SDS011;11959;49.418;8.728;2024-01-07T09:32:39;5.47;;;3.70;;
23561;SDS011;11959;49.418;8.728;2024-01-07T09:35:05;5.03;;;3.47;;
23561;SDS011;11959;49.418;8.728;2024-01-07T09:37:31;4.00;;;2.97;;
23561;SDS011;11959;49.418;8.728;2024-01-07T09:39:57;3.10;;;2.60;;
23561;SDS011;11959;49.418;8.728;2024-01-07T09:42:23;4.45;;;2.78;;
23561;SDS011;11959;49.418;8.728;2024-01-07T09:44:50;3.22;;;2.67;;
23561;SDS011;11959;49.418;8.728;2024-01-07T09:47:15;4.18;;;2.85;;
23561;SDS011;11959;49.418;8.728;2024-01-07T09:49:42;4.32;;;2.80;;
23561;SDS011;11959;49.418;8.728;2024-01-07T09:52:08;4.70;;;3.13;;
23561;SDS011;11959;49.418;8.728;2024-01-07T09:54:36;4.00;;;2.78;;
23561;SDS011;11959;49.418;8.728;2024-01-07T09:57:03;4.43;;;2.38;;
23561;SDS011;11959;49.418;8.728;2024-01-07T09:59:34;4.28;;;3.03;;
23561;SDS011;11959;49.418;8.728;2024-01-07T10:02:01;3.95;;;2.70;;
23561;SDS011;11959;49.418;8.728;2024-01-07T10:04:27;4.78;;;3.20;;
23561;SDS011;11959;49.418;8.728;2024-01-07T10:06:53;4.57;;;2.78;;
23561;SDS011;11959;49.418;8.728;2024-01-07T10:09:21;4.38;;;2.83;;
23561;SDS011;11959;49.418;8.728;2024-01-07T10:11:51;4.13;;;3.42;;
23561;SDS011;11959;49.418;8.728;2024-01-07T10:14:17;5.75;;;3.38;;
23561;SDS011;11959;49.418;8.728;2024-01-07T10:16:43;7.30;;;5.30;;
23561;SDS011;11959;49.418;8.728;2024-01-07T10:19:08;5.07;;;3.40;;
23561;SDS011;11959;49.418;8.728;2024-01-07T10:21:34;3.83;;;2.78;;
23561;SDS011;11959;49.418;8.728;2024-01-07T10:24:12;3.13;;;2.55;;
23561;SDS011;11959;49.418;8.728;2024-01-07T10:26:39;4.38;;;2.97;;
23561;SDS011;11959;49.418;8.728;2024-01-07T10:29:06;4.65;;;2.88;;
23561;SDS011;11959;49.418;8.728;2024-01-07T10:31:38;3.50;;;3.05;;
23561;SDS011;11959;49.418;8.728;2024-01-07T10:34:08;5.45;;;2.90;;
23561;SDS011;11959;49.418;8.728;2024-01-07T10:36:35;4.25;;;3.00;;
23561;SDS011;11959;49.418;8.728;2024-01-07T10:39:02;4.13;;;3.03;;
23561;SDS011;11959;49.418;8.728;2024-01-07T10:41:28;6.55;;;2.97;;
23561;SDS011;11959;49.418;8.728;2024-01-07T10:43:55;3.65;;;2.90;;
23561;SDS011;11959;49.418;8.728;2024-01-07T10:46:20;3.55;;;2.80;;
23561;SDS011;11959;49.418;8.728;2024-01-07T10:48:50;5.15;;;3.13;;
23561;SDS011;11959;49.418;8.728;2024-01-07T10:51:29;4.28;;;3.03;;
23561;SDS011;11959;49.418;8.728;2024-01-07T10:53:59;3.80;;;2.70;;
23561;SDS011;11959;49.418;8.728;2024-01-07T10:56:25;4.75;;;3.15;;
23561;SDS011;11959;49.418;8.728;2024-01-07T10:59:05;5.45;;;3.25;;
23561;SDS011;11959;49.418;8.728;2024-01-07T11:01:30;3.50;;;2.70;;
23561;SDS011;11959;49.418;8.728;2024-01-07T11:06:51;4.20;;;2.80;;
23561;SDS011;11959;49.418;8.728;2024-01-07T11:09:23;4.15;;;3.40;;
23561;SDS011;11959;49.418;8.728;2024-01-07T11:11:58;4.53;;;3.50;;
23561;SDS011;11959;49.418;8.728;2024-01-07T11:17:04;7.00;;;4.47;;
23561;SDS011;11959;49.418;8.728;2024-01-07T11:19:34;5.50;;;3.95;;
23561;SDS011;11959;49.418;8.728;2024-01-07T11:24:57;5.10;;;3.38;;
23561;SDS011;11959;49.418;8.728;2024-01-07T11:27:24;4.55;;;3.47;;
23561;SDS011;11959;49.418;8.728;2024-01-07T11:29:55;4.38;;;3.40;;
23561;SDS011;11959;49.418;8.728;2024-01-07T11:32:22;4.40;;;3.53;;
23561;SDS011;11959;49.418;8.728;2024-01-07T11:34:50;5.05;;;4.00;;
23561;SDS011;11959;49.418;8.728;2024-01-07T11:37:19;7.07;;;4.53;;
23561;SDS011;11959;49.418;8.728;2024-01-07T11:39:46;4.28;;;3.85;;
23561;SDS011;11959;49.418;8.728;2024-01-07T11:42:13;5.13;;;4.03;;
23561;SDS011;11959;49.418;8.728;2024-01-07T11:44:54;4.97;;;3.65;;
23561;SDS011;11959;49.418;8.728;2024-01-07T11:47:21;5.15;;;4.07;;
23561;SDS011;11959;49.418;8.728;2024-01-07T11:49:47;5.85;;;4.03;;
23561;SDS011;11959;49.418;8.728;2024-01-07T11:52:16;7.05;;;4.95;;
23561;SDS011;11959;49.418;8.728;2024-01-07T11:54:42;6.40;;;4.47;;
23561;SDS011;11959;49.418;8.728;2024-01-07T11:57:08;6.03;;;4.45;;
23561;SDS011;11959;49.418;8.728;2024-01-07T11:59:36;6.03;;;4.30;;
23561;SDS011;11959;49.418;8.728;2024-01-07T12:02:02;5.95;;;4.85;;
23561;SDS011;11959;49.418;8.728;2024-01-07T12:04:32;7.45;;;4.97;;
23561;SDS011;11959;49.418;8.728;2024-01-07T12:06:58;8.10;;;5.53;;
23561;SDS011;11959;49.418;8.728;2024-01-07T12:09:25;6.90;;;4.65;;
23561;SDS011;11959;49.418;8.728;2024-01-07T12:11:51;7.07;;;5.50;;
23561;SDS011;11959;49.418;8.728;2024-01-07T12:14:17;8.23;;;6.00;;
23561;SDS011;11959;49.418;8.728;2024-01-07T12:16:44;9.65;;;7.13;;
23561;SDS011;11959;49.418;8.728;2024-01-07T12:19:10;7.15;;;5.22;;
23561;SDS011;11959;49.418;8.728;2024-01-07T12:21:36;7.07;;;5.13;;
23561;SDS011;11959;49.418;8.728;2024-01-07T12:24:03;7.32;;;5.07;;
23561;SDS011;11959;49.418;8.728;2024-01-07T12:26:29;9.43;;;5.88;;
23561;SDS011;11959;49.418;8.728;2024-01-07T12:28:56;8.18;;;6.25;;
23561;SDS011;11959;49.418;8.728;2024-01-07T12:31:33;8.52;;;5.38;;
23561;SDS011;11959;49.418;8.728;2024-01-07T12:33:59;10.07;;;7.93;;
23561;SDS011;11959;49.418;8.728;2024-01-07T12:36:25;7.88;;;6.20;;
23561;SDS011;11959;49.418;8.728;2024-01-07T12:38:51;8.10;;;5.63;;
23561;SDS011;11959;49.418;8.728;2024-01-07T12:41:21;8.27;;;5.70;;
23561;SDS011;11959;49.418;8.728;2024-01-07T12:43:48;7.75;;;5.30;;
23561;SDS011;11959;49.418;8.728;2024-01-07T12:46:14;12.85;;;9.65;;
23561;SDS011;11959;49.418;8.728;2024-01-07T12:48:40;7.95;;;5.55;;
23561;SDS011;11959;49.418;8.728;2024-01-07T12:51:05;10.23;;;6.78;;
23561;SDS011;11959;49.418;8.728;2024-01-07T12:53:31;10.57;;;6.50;;
23561;SDS011;11959;49.418;8.728;2024-01-07T12:55:57;9.23;;;6.63;;
23561;SDS011;11959;49.418;8.728;2024-01-07T12:58:22;12.85;;;9.52;;
23561;SDS011;11959;49.418;8.728;2024-01-07T13:00:48;7.60;;;5.55;;
23561;SDS011;11959;49.418;8.728;2024-01-07T13:03:14;9.40;;;6.65;;
23561;SDS011;11959;49.418;8.728;2024-01-07T13:05:45;10.68;;;7.97;;
23561;SDS011;11959;49.418;8.728;2024-01-07T13:08:14;9.85;;;7.30;;
23561;SDS011;11959;49.418;8.728;2024-01-07T13:10:41;7.85;;;5.88;;
23561;SDS011;11959;49.418;8.728;2024-01-07T13:13:06;9.73;;;6.07;;
23561;SDS011;11959;49.418;8.728;2024-01-07T13:15:34;10.20;;;6.00;;
23561;SDS011;11959;49.418;8.728;2024-01-07T13:17:59;11.25;;;6.93;;
23561;SDS011;11959;49.418;8.728;2024-01-07T13:20:25;11.27;;;7.53;;
23561;SDS011;11959;49.418;8.728;2024-01-07T13:22:51;24.70;;;19.63;;
23561;SDS011;11959;49.418;8.728;2024-01-07T13:25:16;11.38;;;8.63;;
23561;SDS011;11959;49.418;8.728;2024-01-07T13:27:42;9.98;;;6.80;;
23561;SDS011;11959;49.418;8.728;2024-01-07T13:30:07;9.25;;;6.53;;
23561;SDS011;11959;49.418;8.728;2024-01-07T13:32:34;8.68;;;6.40;;
23561;SDS011;11959;49.418;8.728;2024-01-07T13:35:04;9.88;;;6.95;;
23561;SDS011;11959;49.418;8.728;2024-01-07T13:37:35;10.02;;;6.45;;
23561;SDS011;11959;49.418;8.728;2024-01-07T13:42:32;11.98;;;7.60;;
23561;SDS011;11959;49.418;8.728;2024-01-07T13:44:59;11.43;;;7.38;;
23561;SDS011;11959;49.418;8.728;2024-01-07T13:47:24;15.30;;;8.60;;
23561;SDS011;11959;49.418;8.728;2024-01-07T13:49:50;10.32;;;6.68;;
23561;SDS011;11959;49.418;8.728;2024-01-07T13:52:16;8.27;;;5.85;;
23561;SDS011;11959;49.418;8.728;2024-01-07T13:54:41;11.13;;;7.07;;
23561;SDS011;11959;49.418;8.728;2024-01-07T13:57:07;10.27;;;7.25;;
23561;SDS011;11959;49.418;8.728;2024-01-07T13:59:33;11.18;;;6.80;;
23561;SDS011;11959;49.418;8.728;2024-01-07T14:01:58;11.38;;;7.00;;
23561;SDS011;11959;49.418;8.728;2024-01-07T14:04:24;9.75;;;7.30;;
23561;SDS011;11959;49.418;8.728;2024-01-07T14:06:54;11.65;;;7.50;;
23561;SDS011;11959;49.418;8.728;2024-01-07T14:09:20;9.75;;;6.35;;
23561;SDS011;11959;49.418;8.728;2024-01-07T14:11:46;11.10;;;6.80;;
23561;SDS011;11959;49.418;8.728;2024-01-07T14:14:12;10.10;;;7.10;;
23561;SDS011;11959;49.418;8.728;2024-01-07T14:16:38;11.93;;;7.65;;
23561;SDS011;11959;49.418;8.728;2024-01-07T14:19:05;10.15;;;7.13;;
23561;SDS011;11959;49.418;8.728;2024-01-07T14:21:31;10.43;;;6.70;;
23561;SDS011;11959;49.418;8.728;2024-01-07T14:23:56;10.68;;;7.35;;
23561;SDS011;11959;49.418;8.728;2024-01-07T14:26:22;12.27;;;6.82;;
23561;SDS011;11959;49.418;8.728;2024-01-07T14:28:48;11.45;;;7.13;;
23561;SDS011;11959;49.418;8.728;2024-01-07T14:31:15;12.73;;;7.00;;
23561;SDS011;11959;49.418;8.728;2024-01-07T14:33:40;10.40;;;6.75;;
23561;SDS011;11959;49.418;8.728;2024-01-07T14:36:06;10.77;;;7.10;;
23561;SDS011;11959;49.418;8.728;2024-01-07T14:38:34;10.75;;;6.60;;
23561;SDS011;11959;49.418;8.728;2024-01-07T14:40:59;11.20;;;6.55;;
23561;SDS011;11959;49.418;8.728;2024-01-07T14:43:25;11.13;;;6.85;;